sensor_id;sensor_type;location;lat;lon;timestamp;pressure;altitude;pressure_sealevel;temperature;humidity
7614;BME280;3848;42.016;23.098;2023-03-11T00:02:10;95442.53;;;12.05;100.00
7614;BME280;3848;42.016;23.098;2023-03-11T00:04:37;95443.63;;;12.00;100.00
7614;BME280;3848;42.016;23.098;2023-03-11T00:07:05;95444.00;;;11.90;100.00
7614;BME280;3848;42.016;23.098;2023-03-11T00:09:34;95439.44;;;11.77;100.00
7614;BME280;3848;42.016;23.098;2023-03-11T00:12:01;95447.88;;;11.79;100.00
7614;BME280;3848;42.016;23.098;2023-03-11T00:14:28;95445.31;;;11.79;100.00
7614;BME280;3848;42.016;23.098;2023-03-11T00:16:55;95445.41;;;11.76;100.00
7614;BME280;3848;42.016;23.098;2023-03-11T00:19:22;95447.44;;;11.68;100.00
7614;BME280;3848;42.016;23.098;2023-03-11T00:21:49;95426.31;;;11.66;100.00
7614;BME280;3848;42.016;23.098;2023-03-11T00:24:16;95432.00;;;11.72;100.00
7614;BME280;3848;42.016;23.098;2023-03-11T00:26:44;95441.16;;;11.76;100.00
7614;BME280;3848;42.016;23.098;2023-03-11T00:29:11;95433.41;;;11.79;100.00
7614;BME280;3848;42.016;23.098;2023-03-11T00:31:37;95413.91;;;11.80;100.00
7614;BME280;3848;42.016;23.098;2023-03-11T00:34:04;95421.59;;;11.78;100.00
7614;BME280;3848;42.016;23.098;2023-03-11T00:36:32;95414.78;;;11.79;100.00
7614;BME280;3848;42.016;23.098;2023-03-11T00:39:00;95433.28;;;11.82;100.00
7614;BME280;3848;42.016;23.098;2023-03-11T00:41:30;95430.69;;;11.84;100.00
7614;BME280;3848;42.016;23.098;2023-03-11T00:43:59;95434.47;;;11.74;100.00
7614;BME280;3848;42.016;23.098;2023-03-11T00:46:26;95443.63;;;11.78;100.00
7614;BME280;3848;42.016;23.098;2023-03-11T00:48:54;95432.00;;;11.72;100.00
7614;BME280;3848;42.016;23.098;2023-03-11T00:51:21;95441.16;;;11.76;100.00
7614;BME280;3848;42.016;23.098;2023-03-11T00:53:48;95440.94;;;11.82;100.00
7614;BME280;3848;42.016;23.098;2023-03-11T00:56:15;95430.69;;;11.84;100.00
7614;BME280;3848;42.016;23.098;2023-03-11T00:58:43;95416.31;;;11.83;100.00
7614;BME280;3848;42.016;23.098;2023-03-11T01:01:13;95417.97;;;11.84;100.00
7614;BME280;3848;42.016;23.098;2023-03-11T01:03:41;95413.69;;;11.84;100.00
7614;BME280;3848;42.016;23.098;2023-03-11T01:06:08;95408.13;;;11.75;100.00
7614;BME280;3848;42.016;23.098;2023-03-11T01:08:36;95421.06;;;11.70;100.00
7614;BME280;3848;42.016;23.098;2023-03-11T01:11:03;95419.34;;;11.71;100.00
7614;BME280;3848;42.016;23.098;2023-03-11T01:13:31;95396.50;;;11.69;100.00
7614;BME280;3848;42.016;23.098;2023-03-11T01:15:58;95388.16;;;11.66;100.00
7614;BME280;3848;42.016;23.098;2023-03-11T01:18:27;95383.06;;;11.66;100.00
7614;BME280;3848;42.016;23.098;2023-03-11T01:20:54;95373.19;;;11.58;100.00
7614;BME280;3848;42.016;23.098;2023-03-11T01:23:21;95375.56;;;11.63;100.00
7614;BME280;3848;42.016;23.098;2023-03-11T01:25:48;95359.78;;;11.54;100.00
7614;BME280;3848;42.016;23.098;2023-03-11T01:28:15;95359.66;;;11.57;100.00
7614;BME280;3848;42.016;23.098;2023-03-11T01:30:41;95362.25;;;11.56;100.00
7614;BME280;3848;42.016;23.098;2023-03-11T01:33:14;95363.66;;;11.63;100.00
7614;BME280;3848;42.016;23.098;2023-03-11T01:35:43;95333.59;;;11.52;100.00
7614;BME280;3848;42.016;23.098;2023-03-11T01:38:10;95333.31;;;11.58;100.00
7614;BME280;3848;42.016;23.098;2023-03-11T01:40:40;95335.25;;;11.53;100.00
7614;BME280;3848;42.016;23.098;2023-03-11T01:43:45;95334.59;;;11.48;100.00
7614;BME280;3848;42.016;23.098;2023-03-11T01:46:15;95335.44;;;11.49;100.00
7614;BME280;3848;42.016;23.098;2023-03-11T01:48:45;95291.72;;;11.19;100.00
7614;BME280;3848;42.016;23.098;2023-03-11T01:51:14;95325.81;;;11.35;100.00
7614;BME280;3848;42.016;23.098;2023-03-11T01:53:43;95280.34;;;11.07;100.00
7614;BME280;3848;42.016;23.098;2023-03-11T01:56:10;95319.84;;;11.36;100.00
7614;BME280;3848;42.016;23.098;2023-03-11T01:58:41;95324.44;;;11.48;100.00
7614;BME280;3848;42.016;23.098;2023-03-11T02:01:10;95319.47;;;11.45;100.00
7614;BME280;3848;42.016;23.098;2023-03-11T02:03:39;95336.91;;;11.54;100.00
7614;BME280;3848;42.016;23.098;2023-03-11T02:06:09;95342.03;;;11.53;100.00
7614;BME280;3848;42.016;23.098;2023-03-11T02:08:38;95337.84;;;11.52;100.00
7614;BME280;3848;42.016;23.098;2023-03-11T02:11:08;95339.50;;;11.53;100.00
7614;BME280;3848;42.016;23.098;2023-03-11T02:13:37;95348.91;;;11.51;100.00
7614;BME280;3848;42.016;23.098;2023-03-11T02:16:06;95349.53;;;11.56;100.00
7614;BME280;3848;42.016;23.098;2023-03-11T02:18:33;95351.13;;;11.58;100.00
7614;BME280;3848;42.016;23.098;2023-03-11T02:21:06;95357.03;;;11.59;100.00
7614;BME280;3848;42.016;23.098;2023-03-11T02:23:44;95342.19;;;11.50;100.00
7614;BME280;3848;42.016;23.098;2023-03-11T02:26:17;95352.03;;;11.57;100.00
7614;BME280;3848;42.016;23.098;2023-03-11T02:28:49;95362.47;;;11.51;100.00
7614;BME280;3848;42.016;23.098;2023-03-11T02:31:37;95368.38;;;11.52;100.00
7614;BME280;3848;42.016;23.098;2023-03-11T02:34:07;95368.44;;;11.50;100.00
7614;BME280;3848;42.016;23.098;2023-03-11T02:36:39;95366.78;;;11.49;100.00
7614;BME280;3848;42.016;23.098;2023-03-11T02:39:07;95371.09;;;11.47;100.00
7614;BME280;3848;42.016;23.098;2023-03-11T02:41:36;95370.22;;;11.48;100.00
7614;BME280;3848;42.016;23.098;2023-03-11T02:44:06;95375.59;;;11.41;100.00
7614;BME280;3848;42.016;23.098;2023-03-11T02:46:33;95371.31;;;11.41;100.00
7614;BME280;3848;42.016;23.098;2023-03-11T02:49:01;95365.47;;;11.39;100.00
7614;BME280;3848;42.016;23.098;2023-03-11T02:51:28;95382.38;;;11.40;100.00
7614;BME280;3848;42.016;23.098;2023-03-11T02:53:58;95380.91;;;11.35;100.00
7614;BME280;3848;42.016;23.098;2023-03-11T02:56:26;95389.38;;;11.35;100.00
7614;BME280;3848;42.016;23.098;2023-03-11T02:58:53;95388.66;;;11.32;100.00
7614;BME280;3848;42.016;23.098;2023-03-11T03:01:21;95382.28;;;11.21;100.00
7614;BME280;3848;42.016;23.098;2023-03-11T03:03:48;95369.81;;;11.15;100.00
7614;BME280;3848;42.016;23.098;2023-03-11T03:06:15;95368.09;;;11.16;100.00
7614;BME280;3848;42.016;23.098;2023-03-11T03:08:42;95369.16;;;11.10;100.00
7614;BME280;3848;42.016;23.098;2023-03-11T03:11:08;95373.31;;;11.13;100.00
7614;BME280;3848;42.016;23.098;2023-03-11T03:13:35;95374.91;;;11.15;100.00
7614;BME280;3848;42.016;23.098;2023-03-11T03:16:02;95379.91;;;11.17;100.00
7614;BME280;3848;42.016;23.098;2023-03-11T03:18:31;95380.81;;;11.16;100.00
7614;BME280;3848;42.016;23.098;2023-03-11T03:20:58;95386.53;;;11.21;100.00
7614;BME280;3848;42.016;23.098;2023-03-11T03:23:24;95382.47;;;11.17;100.00
7614;BME280;3848;42.016;23.098;2023-03-11T03:25:51;95380.94;;;11.13;100.00
7614;BME280;3848;42.016;23.098;2023-03-11T03:28:18;95387.34;;;11.21;100.00
7614;BME280;3848;42.016;23.098;2023-03-11T03:30:45;95386.31;;;11.27;100.00
7614;BME280;3848;42.016;23.098;2023-03-11T03:33:12;95393.06;;;11.28;100.00
7614;BME280;3848;42.016;23.098;2023-03-11T03:35:42;95392.16;;;11.29;100.00
7614;BME280;3848;42.016;23.098;2023-03-11T03:38:09;95393.88;;;11.28;100.00
7614;BME280;3848;42.016;23.098;2023-03-11T03:40:36;95401.63;;;11.25;100.00
7614;BME280;3848;42.016;23.098;2023-03-11T03:43:03;95403.34;;;11.25;100.00
7614;BME280;3848;42.016;23.098;2023-03-11T03:45:31;95415.03;;;11.29;100.00
7614;BME280;3848;42.016;23.098;2023-03-11T03:47:57;95405.75;;;11.28;100.00
7614;BME280;3848;42.016;23.098;2023-03-11T03:50:24;95401.66;;;11.24;100.00
7614;BME280;3848;42.016;23.098;2023-03-11T03:52:52;95391.69;;;11.19;100.00
7614;BME280;3848;42.016;23.098;2023-03-11T03:55:19;95362.72;;;11.02;100.00
7614;BME280;3848;42.016;23.098;2023-03-11T03:57:46;95400.84;;;11.23;100.00
7614;BME280;3848;42.016;23.098;2023-03-11T04:00:13;95394.28;;;11.18;100.00
7614;BME280;3848;42.016;23.098;2023-03-11T04:02:40;95388.31;;;11.19;100.00
7614;BME280;3848;42.016;23.098;2023-03-11T04:05:08;95394.16;;;11.21;100.00
7614;BME280;3848;42.016;23.098;2023-03-11T04:07:35;95388.44;;;11.16;100.00
7614;BME280;3848;42.016;23.098;2023-03-11T04:10:05;95390.97;;;11.16;100.00
7614;BME280;3848;42.016;23.098;2023-03-11T04:12:31;95393.63;;;11.13;100.00
7614;BME280;3848;42.016;23.098;2023-03-11T04:14:58;95402.16;;;11.12;100.00
7614;BME280;3848;42.016;23.098;2023-03-11T04:17:25;95403.75;;;11.14;100.00
7614;BME280;3848;42.016;23.098;2023-03-11T04:19:52;95403.03;;;11.11;100.00
7614;BME280;3848;42.016;23.098;2023-03-11T04:22:19;95405.69;;;11.08;100.00
7614;BME280;3848;42.016;23.098;2023-03-11T04:24:46;95408.88;;;11.13;100.00
7614;BME280;3848;42.016;23.098;2023-03-11T04:27:14;95404.63;;;11.13;100.00
7614;BME280;3848;42.016;23.098;2023-03-11T04:29:41;95405.69;;;11.08;100.00
7614;BME280;3848;42.016;23.098;2023-03-11T04:32:07;95415.94;;;11.06;100.00
7614;BME280;3848;42.016;23.098;2023-03-11T04:34:34;95415.88;;;11.08;100.00
7614;BME280;3848;42.016;23.098;2023-03-11T04:37:01;95420.94;;;11.08;100.00
7614;BME280;3848;42.016;23.098;2023-03-11T04:39:27;95414.09;;;11.10;100.00
7614;BME280;3848;42.016;23.098;2023-03-11T04:41:55;95406.28;;;11.14;100.00
7614;BME280;3848;42.016;23.098;2023-03-11T04:44:23;95404.50;;;11.16;100.00
7614;BME280;3848;42.016;23.098;2023-03-11T04:46:50;95400.31;;;11.15;100.00
7614;BME280;3848;42.016;23.098;2023-03-11T04:49:17;95407.00;;;11.18;100.00
7614;BME280;3848;42.016;23.098;2023-03-11T04:51:44;95394.41;;;11.15;100.00
7614;BME280;3848;42.016;23.098;2023-03-11T04:54:11;95410.28;;;11.20;100.00
7614;BME280;3848;42.016;23.098;2023-03-11T04:56:38;95410.28;;;11.20;100.00
7614;BME280;3848;42.016;23.098;2023-03-11T04:59:04;95405.47;;;11.14;100.00
7614;BME280;3848;42.016;23.098;2023-03-11T05:01:33;95413.03;;;11.15;100.00
7614;BME280;3848;42.016;23.098;2023-03-11T05:03:59;95424.78;;;11.18;100.00
7614;BME280;3848;42.016;23.098;2023-03-11T05:06:26;95414.56;;;11.19;100.00
7614;BME280;3848;42.016;23.098;2023-03-11T05:08:53;95422.19;;;11.19;100.00
7614;BME280;3848;42.016;23.098;2023-03-11T05:11:20;95411.44;;;11.13;100.00
7614;BME280;3848;42.016;23.098;2023-03-11T05:13:46;95401.56;;;11.05;100.00
7614;BME280;3848;42.016;23.098;2023-03-11T05:16:13;95399.91;;;11.04;100.00
7614;BME280;3848;42.016;23.098;2023-03-11T05:18:41;95412.91;;;11.18;100.00
7614;BME280;3848;42.016;23.098;2023-03-11T05:21:08;95412.91;;;11.18;100.00
7614;BME280;3848;42.016;23.098;2023-03-11T05:23:35;95418.03;;;11.17;100.00
7614;BME280;3848;42.016;23.098;2023-03-11T05:26:02;95419.63;;;11.19;100.00
7614;BME280;3848;42.016;23.098;2023-03-11T05:28:28;95430.63;;;11.20;100.00
7614;BME280;3848;42.016;23.098;2023-03-11T05:30:55;95435.72;;;11.20;100.00
7614;BME280;3848;42.016;23.098;2023-03-11T05:33:22;95431.59;;;11.17;100.00
7614;BME280;3848;42.016;23.098;2023-03-11T05:35:50;95425.56;;;11.20;100.00
7614;BME280;3848;42.016;23.098;2023-03-11T05:38:17;95421.22;;;11.22;100.00
7614;BME280;3848;42.016;23.098;2023-03-11T05:40:44;95435.50;;;11.26;100.00
7614;BME280;3848;42.016;23.098;2023-03-11T05:43:11;95427.75;;;11.29;100.00
7614;BME280;3848;42.016;23.098;2023-03-11T05:45:38;95425.97;;;11.31;100.00
7614;BME280;3848;42.016;23.098;2023-03-11T05:48:05;95419.13;;;11.33;100.00
7614;BME280;3848;42.016;23.098;2023-03-11T05:50:32;95419.19;;;11.32;100.00
7614;BME280;3848;42.016;23.098;2023-03-11T05:53:00;95409.06;;;11.30;100.00
7614;BME280;3848;42.016;23.098;2023-03-11T05:55:27;95421.66;;;11.33;100.00
7614;BME280;3848;42.016;23.098;2023-03-11T05:57:53;95430.00;;;11.37;100.00
7614;BME280;3848;42.016;23.098;2023-03-11T06:00:21;95430.06;;;11.35;100.00
7614;BME280;3848;42.016;23.098;2023-03-11T06:02:48;95441.19;;;11.33;100.00
7614;BME280;3848;42.016;23.098;2023-03-11T06:05:15;95436.09;;;11.33;100.00
7614;BME280;3848;42.016;23.098;2023-03-11T06:07:41;95447.97;;;11.32;100.00
7614;BME280;3848;42.016;23.098;2023-03-11T06:10:11;95445.31;;;11.35;100.00
7614;BME280;3848;42.016;23.098;2023-03-11T06:12:37;95438.56;;;11.34;100.00
7614;BME280;3848;42.016;23.098;2023-03-11T06:15:06;95441.88;;;11.36;100.00
7614;BME280;3848;42.016;23.098;2023-03-11T06:17:33;95436.50;;;11.44;100.00
7614;BME280;3848;42.016;23.098;2023-03-11T06:19:59;95428.03;;;11.43;100.00
7614;BME280;3848;42.016;23.098;2023-03-11T06:22:26;95445.50;;;11.52;100.00
7614;BME280;3848;42.016;23.098;2023-03-11T06:24:53;95447.03;;;11.56;100.00
7614;BME280;3848;42.016;23.098;2023-03-11T06:27:21;95453.47;;;11.65;100.00
7614;BME280;3848;42.016;23.098;2023-03-11T06:29:51;95442.28;;;11.69;100.00
7614;BME280;3848;42.016;23.098;2023-03-11T06:32:18;95452.88;;;11.80;100.00
7614;BME280;3848;42.016;23.098;2023-03-11T06:34:49;95441.81;;;11.81;100.00
7614;BME280;3848;42.016;23.098;2023-03-11T06:37:16;95451.47;;;11.95;100.00
7614;BME280;3848;42.016;23.098;2023-03-11T06:39:42;95439.38;;;12.00;100.00
7614;BME280;3848;42.016;23.098;2023-03-11T06:42:09;95447.53;;;12.08;100.00
7614;BME280;3848;42.016;23.098;2023-03-11T06:44:38;95446.25;;;12.18;100.00
7614;BME280;3848;42.016;23.098;2023-03-11T06:47:05;95445.91;;;12.26;100.00
7614;BME280;3848;42.016;23.098;2023-03-11T06:49:32;95435.78;;;12.25;100.00
7614;BME280;3848;42.016;23.098;2023-03-11T06:51:58;95440.88;;;12.25;100.00
7614;BME280;3848;42.016;23.098;2023-03-11T06:54:25;95442.53;;;12.26;100.00
7614;BME280;3848;42.016;23.098;2023-03-11T06:56:52;95443.44;;;12.25;100.00
7614;BME280;3848;42.016;23.098;2023-03-11T06:59:19;95391.31;;;11.93;100.00
7614;BME280;3848;42.016;23.098;2023-03-11T07:01:48;95445.22;;;12.23;100.00
7614;BME280;3848;42.016;23.098;2023-03-11T07:04:15;95442.66;;;12.23;100.00
7614;BME280;3848;42.016;23.098;2023-03-11T07:06:42;95437.56;;;12.23;100.00
7614;BME280;3848;42.016;23.098;2023-03-11T07:09:09;95442.47;;;12.27;100.00
7614;BME280;3848;42.016;23.098;2023-03-11T07:11:35;95434.78;;;12.29;100.00
7614;BME280;3848;42.016;23.098;2023-03-11T07:14:02;95432.75;;;12.37;100.00
7614;BME280;3848;42.016;23.098;2023-03-11T07:16:30;95432.47;;;12.43;100.00
7614;BME280;3848;42.016;23.098;2023-03-11T07:18:59;95427.00;;;12.52;100.00
7614;BME280;3848;42.016;23.098;2023-03-11T07:21:28;95431.06;;;12.56;100.00
7614;BME280;3848;42.016;23.098;2023-03-11T07:23:57;95434.44;;;12.57;100.00
7614;BME280;3848;42.016;23.098;2023-03-11T07:26:25;95414.34;;;12.50;100.00
7614;BME280;3848;42.016;23.098;2023-03-11T07:28:53;95421.16;;;12.50;100.00
7614;BME280;3848;42.016;23.098;2023-03-11T07:31:23;95417.56;;;12.54;100.00
7614;BME280;3848;42.016;23.098;2023-03-11T07:33:50;95412.19;;;12.60;100.00
7614;BME280;3848;42.016;23.098;2023-03-11T07:36:20;95403.31;;;12.69;100.00
7614;BME280;3848;42.016;23.098;2023-03-11T07:38:53;95407.19;;;12.77;100.00
7614;BME280;3848;42.016;23.098;2023-03-11T07:41:20;95405.78;;;12.89;100.00
7614;BME280;3848;42.016;23.098;2023-03-11T07:43:47;95397.00;;;12.96;100.00
7614;BME280;3848;42.016;23.098;2023-03-11T07:46:15;95395.88;;;13.02;100.00
7614;BME280;3848;42.016;23.098;2023-03-11T07:48:43;95384.88;;;13.01;100.00
7614;BME280;3848;42.016;23.098;2023-03-11T07:51:12;95382.44;;;13.17;100.00
7614;BME280;3848;42.016;23.098;2023-03-11T07:53:41;95378.81;;;13.23;100.00
7614;BME280;3848;42.016;23.098;2023-03-11T07:56:09;95376.63;;;13.32;100.00
7614;BME280;3848;42.016;23.098;2023-03-11T07:58:36;95361.13;;;13.37;100.00
7614;BME280;3848;42.016;23.098;2023-03-11T08:01:04;95361.19;;;13.53;100.00
7614;BME280;3848;42.016;23.098;2023-03-11T08:03:32;95360.03;;;13.60;100.00
7614;BME280;3848;42.016;23.098;2023-03-11T08:05:58;95367.97;;;13.71;100.00
7614;BME280;3848;42.016;23.098;2023-03-11T08:08:26;95342.09;;;13.61;100.00
7614;BME280;3848;42.016;23.098;2023-03-11T08:10:54;95355.38;;;13.85;100.00
7614;BME280;3848;42.016;23.098;2023-03-11T08:13:21;95349.50;;;14.00;100.00
7614;BME280;3848;42.016;23.098;2023-03-11T08:15:47;95351.97;;;14.19;100.00
7614;BME280;3848;42.016;23.098;2023-03-11T08:18:14;95355.31;;;14.37;100.00
7614;BME280;3848;42.016;23.098;2023-03-11T08:20:41;95345.94;;;14.53;100.00
7614;BME280;3848;42.016;23.098;2023-03-11T08:23:09;95344.06;;;14.73;100.00
7614;BME280;3848;42.016;23.098;2023-03-11T08:25:37;95340.53;;;14.91;100.00
7614;BME280;3848;42.016;23.098;2023-03-11T08:28:06;95321.88;;;14.89;100.00
7614;BME280;3848;42.016;23.098;2023-03-11T08:30:34;95325.91;;;15.09;100.00
7614;BME280;3848;42.016;23.098;2023-03-11T08:33:01;95318.91;;;15.12;100.00
7614;BME280;3848;42.016;23.098;2023-03-11T08:35:29;95269.75;;;14.91;100.00
7614;BME280;3848;42.016;23.098;2023-03-11T08:37:57;95317.34;;;15.40;100.00
7614;BME280;3848;42.016;23.098;2023-03-11T08:40:23;95319.72;;;15.59;100.00
7614;BME280;3848;42.016;23.098;2023-03-11T08:42:50;95306.59;;;15.65;100.00
7614;BME280;3848;42.016;23.098;2023-03-11T08:45:19;95307.44;;;15.79;100.00
7614;BME280;3848;42.016;23.098;2023-03-11T08:47:45;95302.88;;;15.84;100.00
7614;BME280;3848;42.016;23.098;2023-03-11T08:50:15;95302.44;;;15.92;100.00
7614;BME280;3848;42.016;23.098;2023-03-11T08:52:42;95297.94;;;15.96;100.00
7614;BME280;3848;42.016;23.098;2023-03-11T08:55:11;95288.44;;;15.98;100.00
7614;BME280;3848;42.016;23.098;2023-03-11T08:57:40;95287.41;;;16.00;100.00
7614;BME280;3848;42.016;23.098;2023-03-11T09:00:10;95296.50;;;16.06;100.00
7614;BME280;3848;42.016;23.098;2023-03-11T09:02:39;95297.97;;;16.10;98.15
7614;BME280;3848;42.016;23.098;2023-03-11T09:05:06;95296.97;;;16.12;95.01
7614;BME280;3848;42.016;23.098;2023-03-11T09:07:33;95292.47;;;16.16;94.70
7614;BME280;3848;42.016;23.098;2023-03-11T09:10:00;95294.41;;;16.27;100.00
7614;BME280;3848;42.016;23.098;2023-03-11T09:12:26;95290.16;;;16.40;100.00
7614;BME280;3848;42.016;23.098;2023-03-11T09:14:53;95288.59;;;16.52;100.00
7614;BME280;3848;42.016;23.098;2023-03-11T09:17:20;95243.00;;;16.42;100.00
7614;BME280;3848;42.016;23.098;2023-03-11T09:19:48;95284.38;;;16.79;100.00
7614;BME280;3848;42.016;23.098;2023-03-11T09:22:17;95275.09;;;16.91;97.24
7614;BME280;3848;42.016;23.098;2023-03-11T09:24:44;95269.13;;;16.90;79.42
7614;BME280;3848;42.016;23.098;2023-03-11T09:27:10;95258.25;;;16.87;82.45
7614;BME280;3848;42.016;23.098;2023-03-11T09:29:39;95269.34;;;16.87;100.00
7614;BME280;3848;42.016;23.098;2023-03-11T09:32:06;95257.34;;;16.88;100.00
7614;BME280;3848;42.016;23.098;2023-03-11T09:34:33;95260.72;;;16.88;99.52
7614;BME280;3848;42.016;23.098;2023-03-11T09:37:01;95252.91;;;16.90;96.23
7614;BME280;3848;42.016;23.098;2023-03-11T09:39:28;95249.88;;;16.97;73.02
7614;BME280;3848;42.016;23.098;2023-03-11T09:41:56;95251.25;;;17.16;77.43
7614;BME280;3848;42.016;23.098;2023-03-11T09:44:28;95248.72;;;17.28;71.20
7614;BME280;3848;42.016;23.098;2023-03-11T09:47:32;95244.13;;;17.46;77.48
7614;BME280;3848;42.016;23.098;2023-03-11T09:50:12;95256.13;;;17.73;70.01
7614;BME280;3848;42.016;23.098;2023-03-11T09:52:46;95251.47;;;18.16;90.03
7614;BME280;3848;42.016;23.098;2023-03-11T09:55:29;95235.09;;;18.29;76.46
7614;BME280;3848;42.016;23.098;2023-03-11T09:58:00;95188.84;;;18.17;77.36
7614;BME280;3848;42.016;23.098;2023-03-11T10:00:27;95236.28;;;18.49;79.77
7614;BME280;3848;42.016;23.098;2023-03-11T10:02:55;95240.44;;;18.39;81.23
7614;BME280;3848;42.016;23.098;2023-03-11T10:05:23;95231.53;;;18.07;73.13
7614;BME280;3848;42.016;23.098;2023-03-11T10:07:58;95240.81;;;17.96;75.09
7614;BME280;3848;42.016;23.098;2023-03-11T10:10:31;95233.00;;;17.73;84.80
7614;BME280;3848;42.016;23.098;2023-03-11T10:13:09;95257.41;;;17.53;86.53
7614;BME280;3848;42.016;23.098;2023-03-11T10:15:42;95252.41;;;17.24;100.00
7614;BME280;3848;42.016;23.098;2023-03-11T10:18:22;95259.34;;;17.10;100.00
7614;BME280;3848;42.016;23.098;2023-03-11T10:20:58;95257.34;;;16.88;100.00
7614;BME280;3848;42.016;23.098;2023-03-11T10:23:34;95257.47;;;16.72;100.00
7614;BME280;3848;42.016;23.098;2023-03-11T10:26:09;95265.88;;;16.60;100.00
7614;BME280;3848;42.016;23.098;2023-03-11T10:28:41;95263.34;;;16.45;100.00
7614;BME280;3848;42.016;23.098;2023-03-11T10:31:19;95267.03;;;16.27;100.00
7614;BME280;3848;42.016;23.098;2023-03-11T10:33:51;95270.41;;;16.13;100.00
7614;BME280;3848;42.016;23.098;2023-03-11T10:36:22;95269.78;;;15.96;100.00
7614;BME280;3848;42.016;23.098;2023-03-11T10:38:53;95264.38;;;15.86;100.00
7614;BME280;3848;42.016;23.098;2023-03-11T10:41:23;95265.53;;;15.80;100.00
7614;BME280;3848;42.016;23.098;2023-03-11T10:43:58;95266.09;;;15.71;100.00
7614;BME280;3848;42.016;23.098;2023-03-11T10:46:26;95263.34;;;15.74;100.00
7614;BME280;3848;42.016;23.098;2023-03-11T10:48:54;95259.25;;;15.72;100.00
7614;BME280;3848;42.016;23.098;2023-03-11T10:51:22;95263.44;;;15.73;100.00
7614;BME280;3848;42.016;23.098;2023-03-11T10:53:54;95267.94;;;15.83;100.00
7614;BME280;3848;42.016;23.098;2023-03-11T10:56:27;95274.13;;;15.79;100.00
7614;BME280;3848;42.016;23.098;2023-03-11T10:58:55;95257.13;;;15.64;100.00
7614;BME280;3848;42.016;23.098;2023-03-11T11:01:22;95264.25;;;15.73;100.00
7614;BME280;3848;42.016;23.098;2023-03-11T11:03:51;95281.41;;;15.87;100.00
7614;BME280;3848;42.016;23.098;2023-03-11T11:06:22;95284.31;;;15.95;100.00
7614;BME280;3848;42.016;23.098;2023-03-11T11:09:13;95271.31;;;15.98;100.00
7614;BME280;3848;42.016;23.098;2023-03-11T11:11:41;95272.06;;;16.00;100.00
7614;BME280;3848;42.016;23.098;2023-03-11T11:14:08;95260.63;;;16.06;100.00
7614;BME280;3848;42.016;23.098;2023-03-11T11:16:36;95264.56;;;16.26;100.00
7614;BME280;3848;42.016;23.098;2023-03-11T11:19:06;95247.81;;;16.20;95.84
7614;BME280;3848;42.016;23.098;2023-03-11T11:21:36;95253.09;;;16.45;87.91
7614;BME280;3848;42.016;23.098;2023-03-11T11:24:14;95251.22;;;16.62;84.68
7614;BME280;3848;42.016;23.098;2023-03-11T11:27:02;95255.38;;;16.91;86.77
7614;BME280;3848;42.016;23.098;2023-03-11T11:29:29;95247.72;;;17.04;82.34
7614;BME280;3848;42.016;23.098;2023-03-11T11:32:14;95227.53;;;17.25;100.00
7614;BME280;3848;42.016;23.098;2023-03-11T11:34:52;95231.69;;;17.40;100.00
7614;BME280;3848;42.016;23.098;2023-03-11T11:37:20;95230.19;;;17.50;100.00
7614;BME280;3848;42.016;23.098;2023-03-11T11:39:52;95226.69;;;17.51;95.92
7614;BME280;3848;42.016;23.098;2023-03-11T11:42:21;95222.78;;;17.58;94.48
7614;BME280;3848;42.016;23.098;2023-03-11T11:44:52;95223.56;;;17.46;80.98
7614;BME280;3848;42.016;23.098;2023-03-11T11:47:24;95211.66;;;17.32;91.37
7614;BME280;3848;42.016;23.098;2023-03-11T11:49:54;95201.50;;;17.31;80.35
7614;BME280;3848;42.016;23.098;2023-03-11T11:52:24;95199.84;;;17.30;89.81
7614;BME280;3848;42.016;23.098;2023-03-11T11:54:57;95199.75;;;17.31;84.93
7614;BME280;3848;42.016;23.098;2023-03-11T11:57:26;95200.44;;;17.21;72.49
7614;BME280;3848;42.016;23.098;2023-03-11T11:59:54;95198.28;;;17.27;73.63
7614;BME280;3848;42.016;23.098;2023-03-11T12:02:35;95197.81;;;17.35;77.67
7614;BME280;3848;42.016;23.098;2023-03-11T12:05:07;95204.78;;;17.46;90.07
7614;BME280;3848;42.016;23.098;2023-03-11T12:07:46;95218.84;;;17.40;72.06
7614;BME280;3848;42.016;23.098;2023-03-11T12:10:26;95224.09;;;17.38;72.34
7614;BME280;3848;42.016;23.098;2023-03-11T12:13:12;95214.22;;;17.45;75.53
7614;BME280;3848;42.016;23.098;2023-03-11T12:15:48;95216.91;;;17.44;79.39
7614;BME280;3848;42.016;23.098;2023-03-11T12:18:21;95214.03;;;17.48;73.32
7614;BME280;3848;42.016;23.098;2023-03-11T12:20:53;95205.44;;;17.49;75.94
7614;BME280;3848;42.016;23.098;2023-03-11T12:23:27;95202.66;;;17.52;69.17
7614;BME280;3848;42.016;23.098;2023-03-11T12:26:06;95201.50;;;17.56;69.48
7614;BME280;3848;42.016;23.098;2023-03-11T12:28:40;95203.91;;;17.72;67.48
7614;BME280;3848;42.016;23.098;2023-03-11T12:31:10;95189.91;;;17.89;60.48
7614;BME280;3848;42.016;23.098;2023-03-11T12:33:39;95150.16;;;17.69;57.88
7614;BME280;3848;42.016;23.098;2023-03-11T12:36:20;95198.75;;;17.85;57.85
7614;BME280;3848;42.016;23.098;2023-03-11T12:38:48;95189.94;;;17.76;56.95
7614;BME280;3848;42.016;23.098;2023-03-11T12:41:31;95194.75;;;17.55;55.41
7614;BME280;3848;42.016;23.098;2023-03-11T12:44:22;95194.41;;;17.47;56.84
7614;BME280;3848;42.016;23.098;2023-03-11T12:47:01;95197.16;;;17.19;56.37
7614;BME280;3848;42.016;23.098;2023-03-11T12:49:30;95191.50;;;17.14;57.48
7614;BME280;3848;42.016;23.098;2023-03-11T12:52:02;95186.47;;;17.12;57.89
7614;BME280;3848;42.016;23.098;2023-03-11T12:54:31;95187.72;;;17.19;61.01
7614;BME280;3848;42.016;23.098;2023-03-11T12:57:00;95196.34;;;17.18;60.28
7614;BME280;3848;42.016;23.098;2023-03-11T12:59:51;95196.63;;;17.14;58.96
7614;BME280;3848;42.016;23.098;2023-03-11T13:02:43;95190.47;;;17.16;59.04
7614;BME280;3848;42.016;23.098;2023-03-11T13:05:19;95188.94;;;17.26;60.63
7614;BME280;3848;42.016;23.098;2023-03-11T13:07:49;95197.09;;;17.33;59.21
7614;BME280;3848;42.016;23.098;2023-03-11T13:10:37;95149.94;;;17.09;58.12
7614;BME280;3848;42.016;23.098;2023-03-11T13:13:40;95199.44;;;17.36;59.00
7614;BME280;3848;42.016;23.098;2023-03-11T13:16:34;95196.63;;;17.26;57.87